Time;durP1;ratioP1;P1;durP2;ratioP2;P2;SDS_P1;SDS_P2;PMS_P1;PMS_P2;Temp;Humidity;BMP_temperature;BMP_pressure;BME280_temperature;BME280_humidity;BME280_pressure;Samples;Min_cycle;Max_cycle;Signal;HPM_P1;HPM_P2
2024/02/16 00:00:18;;;;;;;25.42;13.30;;;7.00;99.90;;;;;;5028950;28;21026;-80
2024/02/16 00:02:45;;;;;;;21.35;11.57;;;6.90;99.90;;;;;;5031099;28;20044;-80
2024/02/16 00:05:12;;;;;;;17.88;9.35;;;7.00;99.90;;;;;;5032453;28;20075;-80
2024/02/16 00:07:40;;;;;;;23.25;11.57;;;6.90;99.90;;;;;;5033209;28;20394;-80
2024/02/16 00:10:07;;;;;;;19.20;10.48;;;6.90;99.90;;;;;;5034689;28;20068;-80
2024/02/16 00:12:33;;;;;;;19.88;9.73;;;7.00;99.90;;;;;;5038510;28;20044;-80
2024/02/16 00:15:00;;;;;;;17.75;9.55;;;6.90;99.90;;;;;;5036926;28;20029;-80
2024/02/16 00:17:26;;;;;;;17.38;9.38;;;6.90;99.90;;;;;;5036363;28;20044;-79
2024/02/16 00:19:57;;;;;;;19.92;10.23;;;6.80;99.90;;;;;;5039572;28;20453;-80
2024/02/16 00:22:24;;;;;;;17.60;9.70;;;6.80;99.90;;;;;;5039712;28;20167;-80
2024/02/16 00:24:49;;;;;;;19.02;10.35;;;6.80;99.90;;;;;;5037789;28;20467;-79
2024/02/16 00:27:15;;;;;;;21.13;11.25;;;6.90;99.90;;;;;;5040066;28;20117;-80
2024/02/16 00:29:41;;;;;;;20.13;9.40;;;7.00;99.90;;;;;;5037102;28;20112;-80
2024/02/16 00:32:07;;;;;;;20.90;9.63;;;7.10;99.90;;;;;;5038878;28;20037;-80
2024/02/16 00:34:35;;;;;;;19.67;9.35;;;7.00;99.90;;;;;;5038467;28;20174;-80
2024/02/16 00:37:00;;;;;;;17.27;9.32;;;7.00;99.90;;;;;;5037829;28;20032;-80
2024/02/16 00:39:26;;;;;;;17.42;8.40;;;7.10;99.90;;;;;;5037047;28;20028;-80
2024/02/16 00:41:52;;;;;;;15.45;9.05;;;7.10;99.90;;;;;;5040141;28;20037;-80
2024/02/16 00:44:18;;;;;;;19.63;9.45;;;7.10;99.90;;;;;;5038111;28;20029;-80
2024/02/16 00:46:44;;;;;;;16.10;9.60;;;7.10;99.90;;;;;;5037860;28;20037;-80
2024/02/16 00:49:10;;;;;;;21.45;10.15;;;7.00;99.90;;;;;;5038514;28;20045;-80
2024/02/16 00:51:40;;;;;;;18.92;8.50;;;7.10;99.90;;;;;;5038762;28;20067;-79
2024/02/16 00:54:05;;;;;;;19.17;9.13;;;7.20;99.90;;;;;;5038111;28;20111;-79
2024/02/16 00:56:32;;;;;;;15.35;8.63;;;7.30;99.90;;;;;;5040145;28;20919;-79
2024/02/16 00:58:58;;;;;;;16.02;7.57;;;7.50;99.90;;;;;;5036897;28;20029;-80
2024/02/16 01:01:26;;;;;;;14.60;7.60;;;7.60;99.90;;;;;;5038641;28;20040;-80
2024/02/16 01:03:52;;;;;;;15.38;7.32;;;7.60;99.90;;;;;;5037463;28;20033;-79
2024/02/16 01:06:18;;;;;;;17.17;7.65;;;7.50;99.90;;;;;;5037314;28;20037;-80
2024/02/16 01:08:44;;;;;;;16.65;7.95;;;7.40;99.90;;;;;;5037149;28;20061;-80
2024/02/16 01:11:09;;;;;;;17.27;7.25;;;7.40;99.90;;;;;;5038115;28;20449;-79
2024/02/16 01:13:35;;;;;;;14.65;7.13;;;7.50;99.90;;;;;;5037883;28;20033;-80
2024/02/16 01:16:02;;;;;;;12.10;6.57;;;7.30;99.90;;;;;;5038064;28;20090;-80
2024/02/16 01:18:29;;;;;;;14.93;8.18;;;7.30;99.90;;;;;;5037456;28;20426;-79
2024/02/16 01:20:54;;;;;;;14.48;6.55;;;7.20;99.90;;;;;;5037895;28;20094;-80
2024/02/16 01:23:21;;;;;;;18.08;8.10;;;7.20;99.90;;;;;;5038152;28;20040;-79
2024/02/16 01:25:47;;;;;;;15.63;6.78;;;7.30;99.90;;;;;;5038796;28;20123;-80
2024/02/16 01:28:13;;;;;;;13.82;6.90;;;7.20;99.90;;;;;;5038483;28;20048;-79
2024/02/16 01:30:39;;;;;;;14.48;5.85;;;7.20;99.90;;;;;;5035533;28;20029;-79
2024/02/16 01:33:06;;;;;;;14.32;6.68;;;7.10;99.90;;;;;;5037617;28;20614;-80
2024/02/16 01:35:32;;;;;;;14.93;6.65;;;7.10;99.90;;;;;;5037266;28;20650;-79
2024/02/16 01:37:58;;;;;;;13.45;6.20;;;7.10;99.90;;;;;;5036312;28;20482;-80
2024/02/16 01:40:26;;;;;;;18.35;8.02;;;7.00;99.90;;;;;;5037271;28;20051;-80
2024/02/16 01:42:52;;;;;;;17.77;6.82;;;7.10;99.90;;;;;;5037226;28;20529;-79
2024/02/16 01:45:18;;;;;;;14.02;6.50;;;7.10;99.90;;;;;;5037087;28;20098;-79
2024/02/16 01:47:46;;;;;;;15.23;6.88;;;7.10;99.90;;;;;;5036523;28;20049;-79
2024/02/16 01:50:14;;;;;;;12.88;5.93;;;7.10;99.90;;;;;;5033943;28;20045;-80
2024/02/16 01:52:40;;;;;;;12.35;5.80;;;7.00;99.90;;;;;;5034434;28;20044;-79
2024/02/16 01:55:09;;;;;;;15.68;7.15;;;7.00;99.90;;;;;;5035412;28;21354;-80
2024/02/16 01:57:45;;;;;;;15.57;6.30;;;6.90;99.90;;;;;;5035337;28;20495;-79
2024/02/16 02:00:14;;;;;;;10.80;5.68;;;6.80;99.90;;;;;;5033103;28;20124;-79
2024/02/16 02:02:41;;;;;;;12.90;5.70;;;6.60;99.90;;;;;;5036146;28;20019;-79
2024/02/16 02:05:06;;;;;;;12.40;6.28;;;6.50;99.90;;;;;;5035154;28;20032;-79
2024/02/16 02:07:32;;;;;;;17.25;8.20;;;6.50;99.90;;;;;;5034477;28;20079;-79
2024/02/16 02:09:58;;;;;;;14.07;7.97;;;6.50;99.90;;;;;;5032755;28;20144;-80
2024/02/16 02:12:24;;;;;;;17.20;6.90;;;6.50;99.90;;;;;;5038054;28;20029;-79
2024/02/16 02:14:50;;;;;;;16.95;6.20;;;6.40;99.90;;;;;;5035291;28;20029;-80
2024/02/16 02:17:17;;;;;;;17.60;8.38;;;6.40;99.90;;;;;;5037256;28;20463;-80
2024/02/16 02:19:42;;;;;;;14.88;7.43;;;6.40;99.90;;;;;;5036548;28;20037;-80
2024/02/16 02:22:27;;;;;;;12.38;5.97;;;6.50;99.90;;;;;;5036961;28;20090;-83
2024/02/16 02:24:55;;;;;;;12.45;5.90;;;6.50;99.90;;;;;;5036736;28;20124;-82
2024/02/16 02:27:21;;;;;;;11.93;6.22;;;6.40;99.90;;;;;;5036048;28;20056;-82
2024/02/16 02:29:47;;;;;;;12.45;6.15;;;6.30;99.90;;;;;;5036079;28;20040;-82
2024/02/16 02:32:13;;;;;;;15.98;6.78;;;6.30;99.90;;;;;;5036391;28;20041;-82
2024/02/16 02:34:39;;;;;;;11.65;5.68;;;6.30;99.90;;;;;;5034458;28;20040;-82
2024/02/16 02:37:05;;;;;;;15.25;6.25;;;6.20;99.90;;;;;;5038064;28;20036;-82
2024/02/16 02:39:31;;;;;;;13.13;6.32;;;6.20;99.90;;;;;;5033358;28;20132;-82
2024/02/16 02:41:57;;;;;;;15.05;5.90;;;6.30;99.90;;;;;;5036782;28;20390;-80
2024/02/16 02:44:24;;;;;;;10.63;5.70;;;6.20;99.90;;;;;;5035186;28;20041;-79
2024/02/16 02:46:50;;;;;;;10.10;5.00;;;6.20;99.90;;;;;;5035809;28;20041;-79
2024/02/16 02:49:16;;;;;;;11.13;4.45;;;6.20;99.90;;;;;;5038234;28;20041;-79
2024/02/16 02:51:42;;;;;;;10.05;5.43;;;6.20;99.90;;;;;;5034658;28;20078;-79
2024/02/16 02:54:07;;;;;;;9.07;4.75;;;6.30;99.90;;;;;;5035518;28;20047;-79
2024/02/16 02:56:33;;;;;;;9.40;5.32;;;6.50;99.90;;;;;;5036363;28;20175;-80
2024/02/16 02:58:58;;;;;;;12.77;5.63;;;6.40;99.90;;;;;;5035062;28;20048;-79
2024/02/16 03:01:24;;;;;;;10.63;4.82;;;6.50;99.90;;;;;;5035130;28;20071;-79
2024/02/16 03:03:50;;;;;;;11.07;4.97;;;6.40;99.90;;;;;;5037553;28;20055;-80
2024/02/16 03:06:19;;;;;;;12.52;5.13;;;6.40;99.90;;;;;;5035308;28;20043;-79
2024/02/16 03:08:45;;;;;;;10.02;5.78;;;6.40;99.90;;;;;;5035109;28;20090;-80
2024/02/16 03:11:11;;;;;;;9.82;4.93;;;6.20;99.90;;;;;;5036076;28;20037;-79
2024/02/16 03:13:37;;;;;;;12.13;5.47;;;6.00;99.90;;;;;;5034030;28;20032;-79
2024/02/16 03:16:03;;;;;;;11.27;5.28;;;5.90;99.90;;;;;;5035027;28;20586;-79
2024/02/16 03:18:30;;;;;;;8.40;4.80;;;5.90;99.90;;;;;;5035472;28;20036;-79
2024/02/16 03:20:56;;;;;;;11.35;5.57;;;5.90;99.90;;;;;;5035851;28;20463;-79
2024/02/16 03:23:23;;;;;;;11.88;5.15;;;6.00;99.90;;;;;;5035958;28;21375;-79
2024/02/16 03:25:49;;;;;;;9.80;4.93;;;6.00;99.90;;;;;;5037257;28;20028;-79
2024/02/16 03:28:15;;;;;;;8.82;4.65;;;6.20;99.90;;;;;;5035156;28;20733;-79
2024/02/16 03:30:42;;;;;;;9.50;4.75;;;6.10;99.90;;;;;;5036114;28;20123;-79
2024/02/16 03:33:08;;;;;;;8.50;4.53;;;6.10;99.90;;;;;;5033320;28;20028;-79
2024/02/16 03:35:34;;;;;;;8.73;4.22;;;6.40;99.90;;;;;;5034686;28;20041;-79
2024/02/16 03:38:00;;;;;;;12.80;4.90;;;6.50;99.90;;;;;;5034035;28;20033;-79
2024/02/16 03:40:26;;;;;;;8.52;4.53;;;6.60;99.90;;;;;;5036117;28;20056;-80
2024/02/16 03:42:52;;;;;;;10.23;5.25;;;6.50;99.90;;;;;;5034180;28;20025;-79
2024/02/16 03:45:18;;;;;;;9.45;4.68;;;6.40;99.90;;;;;;5033101;28;20083;-80
2024/02/16 03:47:44;;;;;;;9.02;4.40;;;6.40;99.90;;;;;;5035210;28;20055;-79
2024/02/16 03:50:10;;;;;;;8.02;4.40;;;6.30;99.90;;;;;;5036084;28;20399;-79
2024/02/16 03:52:36;;;;;;;10.30;5.22;;;6.20;99.90;;;;;;5033709;28;20043;-79
2024/02/16 03:55:02;;;;;;;8.13;4.85;;;6.20;99.90;;;;;;5035698;28;20033;-79
2024/02/16 03:57:29;;;;;;;13.68;4.85;;;6.20;99.90;;;;;;5034691;28;20033;-79
2024/02/16 03:59:55;;;;;;;8.38;4.00;;;6.10;99.90;;;;;;5035731;28;20496;-80
2024/02/16 04:02:21;;;;;;;11.65;4.72;;;6.10;99.90;;;;;;5032748;28;20044;-78
2024/02/16 04:04:46;;;;;;;8.63;4.45;;;6.00;99.90;;;;;;5028970;28;21293;-78
2024/02/16 04:07:12;;;;;;;8.18;4.25;;;5.90;99.90;;;;;;5029711;28;20108;-80
2024/02/16 04:09:38;;;;;;;8.07;3.95;;;6.00;99.90;;;;;;5029488;28;20040;-79
2024/02/16 04:12:04;;;;;;;10.48;4.80;;;6.00;99.90;;;;;;5030895;28;20028;-79
2024/02/16 04:14:30;;;;;;;8.98;4.63;;;6.10;99.90;;;;;;5031089;28;20033;-80
2024/02/16 04:16:59;;;;;;;11.68;5.00;;;6.20;99.90;;;;;;5029308;28;20128;-80
2024/02/16 04:19:28;;;;;;;8.63;4.68;;;6.10;99.90;;;;;;5026693;28;20048;-79
2024/02/16 04:21:55;;;;;;;9.82;5.30;;;6.10;99.90;;;;;;5028737;28;20047;-80
2024/02/16 04:24:21;;;;;;;10.77;4.90;;;6.00;99.90;;;;;;5029694;28;20037;-80
2024/02/16 04:26:46;;;;;;;9.80;4.75;;;6.00;99.90;;;;;;5028423;28;20044;-79
2024/02/16 04:29:12;;;;;;;9.85;4.85;;;6.10;99.90;;;;;;5030289;28;20036;-79
2024/02/16 04:31:42;;;;;;;9.93;4.53;;;6.00;99.90;;;;;;5029435;28;20460;-79
2024/02/16 04:34:08;;;;;;;11.40;5.82;;;6.00;99.90;;;;;;5027704;28;20037;-79
2024/02/16 04:36:34;;;;;;;13.25;5.93;;;5.70;99.90;;;;;;5029290;28;20139;-79
2024/02/16 04:39:00;;;;;;;12.93;4.88;;;5.60;99.90;;;;;;5027953;28;20498;-79
2024/02/16 04:41:26;;;;;;;11.48;5.35;;;5.60;99.90;;;;;;5029671;28;20052;-79
2024/02/16 04:43:53;;;;;;;10.95;4.30;;;5.60;99.90;;;;;;5031512;28;20032;-79
2024/02/16 04:46:18;;;;;;;8.00;4.10;;;5.70;99.90;;;;;;5033201;28;20993;-79
2024/02/16 04:48:44;;;;;;;7.00;4.10;;;5.90;99.90;;;;;;5030014;28;20115;-79
2024/02/16 04:51:13;;;;;;;10.15;4.35;;;5.90;99.90;;;;;;5030269;28;20598;-79
2024/02/16 04:53:39;;;;;;;8.38;4.35;;;5.90;99.90;;;;;;5032654;28;20041;-79
2024/02/16 04:56:05;;;;;;;9.63;4.10;;;5.80;99.90;;;;;;5030811;28;20041;-79
2024/02/16 04:58:34;;;;;;;9.43;4.70;;;5.80;99.90;;;;;;5033134;28;20514;-79
2024/02/16 05:00:59;;;;;;;7.93;4.45;;;5.80;99.90;;;;;;5031853;28;20136;-79
2024/02/16 05:03:25;;;;;;;11.38;5.10;;;5.80;99.90;;;;;;5030230;28;20029;-81
2024/02/16 05:05:54;;;;;;;8.30;3.47;;;5.90;99.90;;;;;;5031787;28;20116;-81
2024/02/16 05:08:22;;;;;;;8.68;3.47;;;5.90;99.90;;;;;;5031386;28;20875;-81
2024/02/16 05:10:48;;;;;;;9.57;4.05;;;6.00;99.90;;;;;;5031233;28;20418;-78
2024/02/16 05:13:14;;;;;;;9.55;3.75;;;6.20;99.90;;;;;;5032158;28;20067;-79
2024/02/16 05:15:40;;;;;;;9.68;3.70;;;6.10;99.90;;;;;;5032892;28;20033;-79
2024/02/16 05:18:06;;;;;;;9.23;4.13;;;5.90;99.90;;;;;;5031744;28;20032;-79
2024/02/16 05:20:32;;;;;;;6.95;3.35;;;5.80;99.90;;;;;;5030422;28;20068;-79
2024/02/16 05:22:58;;;;;;;6.40;3.17;;;5.80;99.90;;;;;;5032474;28;20479;-80
2024/02/16 05:25:23;;;;;;;7.90;3.83;;;5.80;99.90;;;;;;5031694;28;20638;-79
2024/02/16 05:27:49;;;;;;;6.32;3.30;;;5.80;99.90;;;;;;5032191;28;20582;-79
2024/02/16 05:30:15;;;;;;;9.10;3.70;;;5.60;99.90;;;;;;5032223;28;20569;-79
2024/02/16 05:32:42;;;;;;;6.43;3.08;;;5.60;99.90;;;;;;5030671;28;20033;-79
2024/02/16 05:35:12;;;;;;;8.18;3.30;;;5.60;99.90;;;;;;5031267;28;20697;-80
2024/02/16 05:37:44;;;;;;;5.90;2.75;;;5.60;99.90;;;;;;5032106;28;20554;-80
2024/02/16 05:40:28;;;;;;;5.57;2.97;;;5.50;99.90;;;;;;5031005;28;20040;-79
2024/02/16 05:42:57;;;;;;;5.82;2.92;;;5.50;99.90;;;;;;5032164;28;20032;-79
2024/02/16 05:45:24;;;;;;;5.93;2.60;;;5.70;99.90;;;;;;5032722;28;20036;-80
2024/02/16 05:47:50;;;;;;;7.80;3.05;;;5.80;99.90;;;;;;5030046;28;20045;-80
2024/02/16 05:50:16;;;;;;;5.25;2.40;;;5.80;99.90;;;;;;5028465;28;20360;-79
2024/02/16 05:52:43;;;;;;;7.15;2.60;;;5.80;99.90;;;;;;5032679;28;20040;-79
2024/02/16 05:55:10;;;;;;;5.97;2.78;;;5.70;99.90;;;;;;5031297;28;20036;-79
2024/02/16 05:57:37;;;;;;;4.90;2.67;;;5.70;99.90;;;;;;5030660;28;20771;-79
2024/02/16 06:00:08;;;;;;;5.80;3.05;;;5.70;99.90;;;;;;5031433;28;20041;-80
2024/02/16 06:02:34;;;;;;;6.90;2.92;;;5.70;99.90;;;;;;5029874;28;20033;-79
2024/02/16 06:05:03;;;;;;;5.72;2.65;;;5.70;99.90;;;;;;5030637;28;20124;-79
2024/02/16 06:07:29;;;;;;;9.18;2.20;;;5.70;99.90;;;;;;5027479;28;20045;-79
2024/02/16 06:09:56;;;;;;;4.80;2.30;;;5.60;99.90;;;;;;5029903;28;20391;-80
2024/02/16 06:12:22;;;;;;;5.93;2.92;;;5.60;99.90;;;;;;5028093;28;20033;-79
2024/02/16 06:14:48;;;;;;;6.40;2.25;;;5.50;99.90;;;;;;5029063;28;20033;-79
2024/02/16 06:17:14;;;;;;;5.63;2.60;;;5.60;99.90;;;;;;5029678;28;20505;-79
2024/02/16 06:19:41;;;;;;;10.95;2.50;;;5.50;99.90;;;;;;5031124;28;20033;-79
2024/02/16 06:22:08;;;;;;;6.88;2.72;;;5.50;99.90;;;;;;5028997;28;20047;-80
2024/02/16 06:24:34;;;;;;;4.72;2.13;;;5.40;99.90;;;;;;5029970;28;20033;-80
2024/02/16 06:27:00;;;;;;;5.63;2.55;;;5.50;99.90;;;;;;5031661;28;20040;-79
2024/02/16 06:29:25;;;;;;;6.63;2.65;;;5.60;99.90;;;;;;5029933;28;20029;-79
2024/02/16 06:31:51;;;;;;;7.40;3.03;;;5.50;99.90;;;;;;5030548;28;20158;-79
2024/02/16 06:34:18;;;;;;;5.03;2.60;;;5.60;99.90;;;;;;5029682;28;20033;-80
2024/02/16 06:36:44;;;;;;;6.80;2.42;;;5.50;99.90;;;;;;5031287;28;20036;-79
2024/02/16 06:39:10;;;;;;;4.88;2.50;;;5.40;99.90;;;;;;5031535;28;20113;-79
2024/02/16 06:41:37;;;;;;;5.90;2.20;;;5.50;99.90;;;;;;5030160;28;20044;-79
2024/02/16 06:44:03;;;;;;;6.97;2.40;;;5.70;99.90;;;;;;5029065;28;20672;-80
2024/02/16 06:46:29;;;;;;;4.45;2.30;;;5.60;99.90;;;;;;5030766;28;20071;-80
2024/02/16 06:48:58;;;;;;;6.03;3.10;;;5.50;99.90;;;;;;5030256;28;20045;-81
2024/02/16 06:51:24;;;;;;;5.45;3.10;;;5.10;99.90;;;;;;5027551;28;20120;-82
2024/02/16 06:53:51;;;;;;;6.20;3.03;;;5.10;99.90;;;;;;5030955;28;21100;-83
2024/02/16 06:56:18;;;;;;;5.82;2.45;;;5.10;99.90;;;;;;5031196;28;20049;-82
2024/02/16 06:58:44;;;;;;;6.75;3.38;;;5.10;99.90;;;;;;5030808;28;20052;-82
2024/02/16 07:01:10;;;;;;;6.72;3.05;;;5.40;99.90;;;;;;5029256;28;20616;-82
2024/02/16 07:03:38;;;;;;;7.03;2.10;;;5.50;99.90;;;;;;5031204;28;20031;-82
2024/02/16 07:06:07;;;;;;;5.20;2.58;;;5.40;99.90;;;;;;5028634;28;20060;-82
2024/02/16 07:08:33;;;;;;;5.03;1.85;;;5.50;99.90;;;;;;5028730;28;20108;-83
2024/02/16 07:10:59;;;;;;;4.85;2.22;;;5.50;99.90;;;;;;5030061;28;20033;-83
2024/02/16 07:13:24;;;;;;;5.20;2.00;;;5.50;99.90;;;;;;5029789;28;20111;-82
2024/02/16 07:15:50;;;;;;;4.35;1.88;;;5.50;99.90;;;;;;5030869;28;20037;-81
2024/02/16 07:18:16;;;;;;;7.60;2.20;;;5.50;99.90;;;;;;5032034;28;20051;-82
2024/02/16 07:20:42;;;;;;;6.97;2.03;;;5.60;99.90;;;;;;5029401;28;20044;-81
2024/02/16 07:23:09;;;;;;;4.10;1.90;;;5.70;99.90;;;;;;5034416;28;20045;-82
2024/02/16 07:25:35;;;;;;;5.75;2.05;;;5.80;99.90;;;;;;5036523;28;20128;-81
2024/02/16 07:28:01;;;;;;;6.13;1.70;;;5.80;99.90;;;;;;5029915;28;20116;-81
2024/02/16 07:30:27;;;;;;;5.20;2.30;;;5.90;99.90;;;;;;5035214;28;20053;-83
2024/02/16 07:32:53;;;;;;;6.72;2.42;;;5.90;99.90;;;;;;5030418;28;20065;-82
2024/02/16 07:35:19;;;;;;;5.45;2.20;;;5.60;99.90;;;;;;5031245;28;20179;-85
2024/02/16 07:37:45;;;;;;;4.82;2.30;;;5.70;99.90;;;;;;5030375;28;20041;-83
2024/02/16 07:40:11;;;;;;;4.90;2.05;;;5.70;99.90;;;;;;5027718;28;20091;-84
2024/02/16 07:42:42;;;;;;;4.82;2.25;;;5.90;99.90;;;;;;5028750;28;20665;-85
2024/02/16 07:45:09;;;;;;;6.78;2.28;;;6.00;99.90;;;;;;5030711;28;20060;-84
2024/02/16 07:47:35;;;;;;;7.35;2.40;;;6.00;99.90;;;;;;5030258;28;20029;-83
2024/02/16 07:50:00;;;;;;;7.35;2.40;;;6.10;99.90;;;;;;5028507;28;20118;-84
2024/02/16 07:52:26;;;;;;;3.92;2.05;;;6.00;99.90;;;;;;5031088;28;20497;-82
2024/02/16 07:54:52;;;;;;;8.40;3.55;;;6.00;99.90;;;;;;5029698;28;20040;-85
2024/02/16 07:57:18;;;;;;;6.57;2.83;;;6.10;99.90;;;;;;5032577;28;20498;-83
2024/02/16 07:59:43;;;;;;;5.13;2.45;;;6.10;99.90;;;;;;5035826;28;20124;-80
2024/02/16 08:02:09;;;;;;;4.72;2.53;;;6.10;99.90;;;;;;5028010;28;20064;-81
2024/02/16 08:04:35;;;;;;;5.40;2.63;;;6.20;99.90;;;;;;5027777;28;20086;-81
2024/02/16 08:07:01;;;;;;;6.18;2.50;;;6.20;99.90;;;;;;5030063;28;20632;-82
2024/02/16 08:09:27;;;;;;;5.57;3.00;;;6.30;99.90;;;;;;5031675;28;20033;-81
2024/02/16 08:11:53;;;;;;;5.20;2.97;;;6.30;99.90;;;;;;5028717;28;20028;-80
2024/02/16 08:14:18;;;;;;;7.22;3.15;;;6.40;99.90;;;;;;5030971;28;20033;-81
2024/02/16 08:16:45;;;;;;;5.68;3.00;;;6.40;99.90;;;;;;5030782;28;20037;-81
2024/02/16 08:19:13;;;;;;;8.23;3.53;;;6.30;99.90;;;;;;5030316;28;20116;-80
2024/02/16 08:21:39;;;;;;;8.60;3.83;;;6.30;99.90;;;;;;5025297;28;20055;-81
2024/02/16 08:24:06;;;;;;;6.63;3.65;;;6.30;99.90;;;;;;5030042;28;20033;-81
2024/02/16 08:26:31;;;;;;;6.78;3.70;;;6.30;99.90;;;;;;5027996;28;20421;-81
2024/02/16 08:28:57;;;;;;;5.18;2.67;;;6.40;99.90;;;;;;5029539;28;20043;-80
2024/02/16 08:31:23;;;;;;;4.93;2.65;;;6.40;99.90;;;;;;5029722;28;20475;-81
2024/02/16 08:33:48;;;;;;;5.45;2.58;;;6.60;99.90;;;;;;5032699;28;20040;-80
2024/02/16 08:36:15;;;;;;;8.13;2.97;;;6.70;99.90;;;;;;5030852;28;20117;-80
2024/02/16 08:38:41;;;;;;;6.88;3.17;;;6.70;99.90;;;;;;5033843;28;20458;-78
2024/02/16 08:41:06;;;;;;;8.50;3.53;;;6.70;99.90;;;;;;5031489;28;20055;-77
2024/02/16 08:43:32;;;;;;;5.90;3.63;;;6.80;99.90;;;;;;5033191;28;23518;-80
2024/02/16 08:45:58;;;;;;;6.47;2.85;;;6.80;99.90;;;;;;5027847;28;20025;-77
2024/02/16 08:48:24;;;;;;;7.25;3.25;;;6.90;99.90;;;;;;5032271;28;20494;-80
2024/02/16 08:50:50;;;;;;;7.88;3.53;;;7.00;99.90;;;;;;5028045;28;20037;-80
2024/02/16 08:53:16;;;;;;;6.97;2.50;;;7.00;99.90;;;;;;5029748;28;20033;-78
2024/02/16 08:55:42;;;;;;;6.00;2.85;;;7.00;99.90;;;;;;5031447;28;20056;-79
2024/02/16 08:58:08;;;;;;;5.85;2.50;;;7.00;99.90;;;;;;5027985;28;20099;-78
2024/02/16 09:00:34;;;;;;;5.95;2.35;;;6.90;99.90;;;;;;5030636;28;20049;-78
2024/02/16 09:03:02;;;;;;;5.78;3.13;;;7.10;99.90;;;;;;5029015;28;20090;-79
2024/02/16 09:05:28;;;;;;;8.98;3.75;;;7.20;99.90;;;;;;5030402;28;20044;-80
2024/02/16 09:07:54;;;;;;;10.52;3.80;;;7.30;99.90;;;;;;5030907;28;20625;-80
2024/02/16 09:10:20;;;;;;;7.18;3.50;;;7.30;99.90;;;;;;5020897;28;20052;-80
2024/02/16 09:12:45;;;;;;;21.40;10.98;;;7.30;99.90;;;;;;5035109;28;20094;-83
2024/02/16 09:15:11;;;;;;;46.05;20.42;;;7.30;99.90;;;;;;5034041;28;20151;-86
2024/02/16 09:17:38;;;;;;;18.33;9.88;;;7.40;99.90;;;;;;5034401;28;20057;-84
2024/02/16 09:20:04;;;;;;;16.48;8.57;;;7.40;99.90;;;;;;5033682;28;20067;-86
2024/02/16 09:22:30;;;;;;;13.27;6.32;;;7.50;99.90;;;;;;5034956;28;20898;-86
2024/02/16 09:24:59;;;;;;;8.32;4.25;;;7.60;99.90;;;;;;5034440;28;20026;-87
2024/02/16 09:27:25;;;;;;;7.45;3.47;;;7.70;99.90;;;;;;5035040;28;20032;-86
2024/02/16 09:29:51;;;;;;;7.53;3.75;;;7.90;99.90;;;;;;5034544;28;20102;-85
2024/02/16 09:32:17;;;;;;;9.05;3.95;;;7.90;99.90;;;;;;5036846;28;20661;-85
2024/02/16 09:34:43;;;;;;;6.63;3.15;;;7.90;99.90;;;;;;5034787;28;20105;-86
2024/02/16 09:37:08;;;;;;;8.85;3.45;;;7.80;99.90;;;;;;5033871;28;21554;-86
2024/02/16 09:39:34;;;;;;;7.47;3.72;;;7.90;99.90;;;;;;5035766;28;20029;-84
2024/02/16 09:42:00;;;;;;;10.32;3.35;;;7.90;99.90;;;;;;5032685;28;20044;-85
2024/02/16 09:44:28;;;;;;;7.00;3.47;;;8.30;99.90;;;;;;5033540;28;20029;-86
2024/02/16 09:46:54;;;;;;;8.27;2.90;;;8.30;99.90;;;;;;5033709;28;20041;-83
2024/02/16 09:49:20;;;;;;;6.90;2.80;;;8.40;99.90;;;;;;5037483;28;20148;-86
2024/02/16 09:51:46;;;;;;;6.30;3.05;;;8.40;99.90;;;;;;5034158;28;20033;-84
2024/02/16 09:54:12;;;;;;;15.20;4.50;;;8.40;99.90;;;;;;5030370;28;20082;-84
2024/02/16 09:56:37;;;;;;;7.78;3.30;;;8.50;99.90;;;;;;5032042;28;20148;-84
2024/02/16 09:59:03;;;;;;;8.07;3.40;;;8.50;99.90;;;;;;5031348;28;20569;-84
2024/02/16 10:01:30;;;;;;;7.10;3.80;;;8.50;99.90;;;;;;5027943;28;20135;-85
2024/02/16 10:04:09;;;;;;;7.78;4.45;;;8.50;99.90;;;;;;5030370;28;20025;-84
2024/02/16 10:06:47;;;;;;;7.40;3.65;;;8.60;99.90;;;;;;5034143;28;20094;-85
2024/02/16 10:09:26;;;;;;;8.80;3.90;;;8.50;99.90;;;;;;5158209;22;20067;-81
2024/02/16 10:11:51;;;;;;;7.45;3.72;;;8.30;99.90;;;;;;5002229;28;20394;-80
2024/02/16 10:14:19;;;;;;;8.70;4.38;;;8.30;99.90;;;;;;5013411;28;20030;-82
2024/02/16 10:16:46;;;;;;;7.50;4.13;;;8.30;99.90;;;;;;5013038;28;20025;-82
2024/02/16 10:19:12;;;;;;;7.78;3.92;;;8.30;99.90;;;;;;5011414;28;20042;-81
2024/02/16 10:21:39;;;;;;;8.65;3.97;;;8.40;99.90;;;;;;5011025;28;20073;-82
2024/02/16 10:24:09;;;;;;;9.27;3.55;;;8.50;99.90;;;;;;5010094;28;20136;-82
2024/02/16 10:26:39;;;;;;;7.57;4.50;;;8.50;99.90;;;;;;5010579;28;20030;-82
2024/02/16 10:29:11;;;;;;;7.78;4.03;;;8.50;99.90;;;;;;5012052;28;20124;-81
2024/02/16 10:31:37;;;;;;;6.80;3.47;;;8.50;99.90;;;;;;4997527;28;20399;-79
2024/02/16 10:34:05;;;;;;;9.10;4.28;;;8.50;99.90;;;;;;5004706;28;20035;-82
2024/02/16 10:36:32;;;;;;;9.55;4.38;;;8.50;99.90;;;;;;5009735;28;20036;-82
2024/02/16 10:38:59;;;;;;;6.07;3.67;;;8.50;99.90;;;;;;5008573;28;20387;-83
2024/02/16 10:41:28;;;;;;;8.23;4.70;;;8.50;99.90;;;;;;5010840;28;20064;-83
2024/02/16 10:43:55;;;;;;;8.20;4.00;;;8.40;99.90;;;;;;5009868;28;20040;-82
2024/02/16 10:46:21;;;;;;;7.82;4.25;;;8.40;99.90;;;;;;5012305;28;20026;-84
2024/02/16 10:48:48;;;;;;;11.93;5.18;;;8.50;99.90;;;;;;5010671;28;20182;-82
2024/02/16 10:51:17;;;;;;;8.77;4.30;;;8.60;99.90;;;;;;5012135;28;20483;-82
2024/02/16 10:53:44;;;;;;;10.27;4.25;;;8.60;99.90;;;;;;5012754;28;20060;-83
2024/02/16 10:56:09;;;;;;;7.60;4.10;;;8.70;99.90;;;;;;5012427;28;20037;-83
2024/02/16 10:58:37;;;;;;;9.25;3.83;;;8.70;99.90;;;;;;5012794;28;20052;-81
2024/02/16 11:01:12;;;;;;;7.03;3.67;;;8.90;99.90;;;;;;5010086;28;20039;-82
2024/02/16 11:03:39;;;;;;;9.63;4.07;;;9.00;99.90;;;;;;5009646;28;20033;-81
2024/02/16 11:06:18;;;;;;;8.43;3.75;;;9.00;99.90;;;;;;5012707;28;20033;-81
2024/02/16 11:08:44;;;;;;;6.75;3.42;;;9.10;99.90;;;;;;5012707;28;20057;-79
2024/02/16 11:11:11;;;;;;;8.43;3.97;;;9.20;99.90;;;;;;5013608;28;20037;-81
2024/02/16 11:13:39;;;;;;;9.23;3.42;;;9.30;99.90;;;;;;5013753;28;20029;-80
2024/02/16 11:16:09;;;;;;;7.85;3.45;;;9.40;99.90;;;;;;5013069;28;20091;-79
2024/02/16 11:18:40;;;;;;;7.45;3.42;;;9.50;99.90;;;;;;5012007;28;20757;-79
2024/02/16 11:21:09;;;;;;;6.22;3.35;;;9.60;99.90;;;;;;5015335;28;21241;-81
2024/02/16 11:23:36;;;;;;;6.85;2.90;;;9.80;99.90;;;;;;5013457;28;20026;-80
2024/02/16 11:26:04;;;;;;;7.30;3.40;;;10.00;99.90;;;;;;5013376;28;20589;-83
2024/02/16 11:28:34;;;;;;;7.88;3.28;;;10.00;99.90;;;;;;5012687;28;20466;-81
2024/02/16 11:31:01;;;;;;;9.43;3.90;;;10.20;99.90;;;;;;5006852;28;20076;-86
2024/02/16 11:33:27;;;;;;;7.50;3.50;;;10.20;99.90;;;;;;5012119;28;20053;-80
2024/02/16 11:35:58;;;;;;;6.65;3.03;;;10.40;99.90;;;;;;5011265;28;20119;-82
2024/02/16 11:38:25;;;;;;;5.93;3.28;;;10.40;99.80;;;;;;5016905;28;20029;-84
2024/02/16 11:41:07;;;;;;;7.40;4.40;;;10.50;99.90;;;;;;5012604;28;20427;-85
2024/02/16 11:43:33;;;;;;;5.65;3.40;;;10.80;99.90;;;;;;5011839;28;20057;-84
2024/02/16 11:46:10;;;;;;;7.25;4.20;;;11.00;99.60;;;;;;5012939;28;21100;-83
2024/02/16 11:48:36;;;;;;;5.85;3.40;;;11.30;99.50;;;;;;5012576;28;20564;-84
2024/02/16 11:51:03;;;;;;;6.78;3.45;;;11.50;99.30;;;;;;5012224;28;20033;-84
2024/02/16 11:53:33;;;;;;;8.05;4.68;;;11.60;99.40;;;;;;5013064;28;20037;-82
2024/02/16 11:55:59;;;;;;;7.60;4.30;;;11.70;99.30;;;;;;5011985;28;20037;-85
2024/02/16 11:58:26;;;;;;;5.05;2.75;;;11.60;98.60;;;;;;5013800;28;20025;-83
2024/02/16 12:00:52;;;;;;;13.27;3.40;;;11.60;98.90;;;;;;5012246;28;20045;-82
2024/02/16 12:03:25;;;;;;;9.20;3.38;;;11.60;98.80;;;;;;5012744;28;20029;-85
2024/02/16 12:05:56;;;;;;;7.43;2.97;;;11.60;98.90;;;;;;5013288;28;20080;-81
2024/02/16 12:08:22;;;;;;;7.75;3.72;;;11.80;98.70;;;;;;5016429;28;20192;-81
2024/02/16 12:10:49;;;;;;;4.63;2.70;;;11.50;98.10;;;;;;5019070;28;20037;-82
2024/02/16 12:13:17;;;;;;;5.70;2.58;;;11.50;98.00;;;;;;5018235;28;20055;-82
2024/02/16 12:15:47;;;;;;;8.80;3.28;;;11.80;97.70;;;;;;5016352;28;20037;-80
2024/02/16 12:18:24;;;;;;;6.63;3.03;;;11.90;97.40;;;;;;5013475;28;20072;-80
2024/02/16 12:21:01;;;;;;;8.27;4.10;;;11.90;97.60;;;;;;5016300;28;20029;-81
2024/02/16 12:23:27;;;;;;;6.70;3.28;;;12.10;97.90;;;;;;5016946;28;20037;-81
2024/02/16 12:25:54;;;;;;;6.30;3.63;;;12.10;97.80;;;;;;5015443;28;20105;-80
2024/02/16 12:28:23;;;;;;;4.97;2.97;;;12.20;97.40;;;;;;5016350;28;20390;-80
2024/02/16 12:30:49;;;;;;;7.00;2.92;;;12.30;97.30;;;;;;5016574;28;20699;-82
2024/02/16 12:33:16;;;;;;;6.47;3.35;;;12.40;97.30;;;;;;5016415;28;20037;-82
2024/02/16 12:35:42;;;;;;;5.10;2.30;;;12.40;96.80;;;;;;5016575;28;20053;-81
2024/02/16 12:38:08;;;;;;;3.80;2.05;;;12.40;96.60;;;;;;5017794;28;20086;-81
2024/02/16 12:40:33;;;;;;;4.97;2.53;;;12.40;96.20;;;;;;5016650;28;20711;-82
2024/02/16 12:42:59;;;;;;;6.60;1.90;;;12.40;96.20;;;;;;5015765;28;20033;-82
2024/02/16 12:45:25;;;;;;;4.40;1.90;;;12.30;96.30;;;;;;5018037;28;20039;-80
2024/02/16 12:47:50;;;;;;;3.42;1.40;;;12.50;96.20;;;;;;5019093;28;20048;-79
2024/02/16 12:50:17;;;;;;;3.95;1.70;;;12.80;96.10;;;;;;5019484;28;20035;-81